sensor_id;sensor_type;location;lat;lon;timestamp;pressure;altitude;pressure_sealevel;temperature;humidity
44044;BME280;29709;52.396;16.796;2023-05-18T00:02:49;102696.77;;;10.35;58.85
44044;BME280;29709;52.396;16.796;2023-05-18T00:06:02;102702.13;;;10.37;58.06
44044;BME280;29709;52.396;16.796;2023-05-18T00:09:19;102702.34;;;10.23;57.43
44044;BME280;29709;52.396;16.796;2023-05-18T00:12:32;102693.77;;;10.15;57.65
44044;BME280;29709;52.396;16.796;2023-05-18T00:15:45;102698.66;;;10.11;58.10
44044;BME280;29709;52.396;16.796;2023-05-18T00:18:58;102691.49;;;10.08;58.04
44044;BME280;29709;52.396;16.796;2023-05-18T00:22:11;102688.46;;;10.00;58.68
44044;BME280;29709;52.396;16.796;2023-05-18T00:25:30;102683.29;;;9.84;59.00
44044;BME280;29709;52.396;16.796;2023-05-18T00:28:44;102687.44;;;9.66;58.99
44044;BME280;29709;52.396;16.796;2023-05-18T00:31:57;102676.39;;;9.55;58.73
44044;BME280;29709;52.396;16.796;2023-05-18T00:35:10;102670.22;;;9.40;58.93
44044;BME280;29709;52.396;16.796;2023-05-18T00:38:24;102668.66;;;9.36;59.07
44044;BME280;29709;52.396;16.796;2023-05-18T00:41:37;102663.17;;;9.36;58.97
44044;BME280;29709;52.396;16.796;2023-05-18T00:44:50;102663.41;;;9.33;59.87
44044;BME280;29709;52.396;16.796;2023-05-18T00:48:04;102655.42;;;9.30;59.94
44044;BME280;29709;52.396;16.796;2023-05-18T00:51:20;102657.62;;;9.25;59.75
44044;BME280;29709;52.396;16.796;2023-05-18T00:54:35;102664.09;;;9.24;61.11
44044;BME280;29709;52.396;16.796;2023-05-18T00:57:48;102661.35;;;9.24;59.82
44044;BME280;29709;52.396;16.796;2023-05-18T01:01:03;102664.09;;;9.24;60.00
44044;BME280;29709;52.396;16.796;2023-05-18T01:04:18;102675.94;;;9.24;60.73
44044;BME280;29709;52.396;16.796;2023-05-18T01:07:42;102677.93;;;9.22;60.66
44044;BME280;29709;52.396;16.796;2023-05-18T01:11:10;102674.83;;;9.27;61.09
44044;BME280;29709;52.396;16.796;2023-05-18T01:18:00;102690.97;;;9.32;62.44
44044;BME280;29709;52.396;16.796;2023-05-18T01:24:47;102701.74;;;9.22;61.11
44044;BME280;29709;52.396;16.796;2023-05-18T01:28:05;102715.02;;;9.15;62.12
44044;BME280;29709;52.396;16.796;2023-05-18T01:31:20;102718.36;;;9.08;64.02
44044;BME280;29709;52.396;16.796;2023-05-18T01:34:33;102730.52;;;9.04;64.52
44044;BME280;29709;52.396;16.796;2023-05-18T01:37:47;102729.12;;;8.98;64.42
44044;BME280;29709;52.396;16.796;2023-05-18T01:44:30;102739.75;;;8.90;64.10
44044;BME280;29709;52.396;16.796;2023-05-18T01:47:47;102746.88;;;8.80;65.00
44044;BME280;29709;52.396;16.796;2023-05-18T01:51:01;102743.57;;;8.75;64.71
44044;BME280;29709;52.396;16.796;2023-05-18T01:54:18;102733.70;;;8.72;65.28
44044;BME280;29709;52.396;16.796;2023-05-18T01:57:34;102739.20;;;8.72;64.38
44044;BME280;29709;52.396;16.796;2023-05-18T02:00:48;102738.97;;;8.62;65.77
44044;BME280;29709;52.396;16.796;2023-05-18T02:04:07;102733.25;;;8.53;64.14
44044;BME280;29709;52.396;16.796;2023-05-18T02:07:21;102727.99;;;8.37;62.89
44044;BME280;29709;52.396;16.796;2023-05-18T02:10:34;102734.73;;;8.31;64.84
44044;BME280;29709;52.396;16.796;2023-05-18T02:13:47;102738.34;;;8.32;65.59
44044;BME280;29709;52.396;16.796;2023-05-18T02:17:01;102744.16;;;8.27;65.01
44044;BME280;29709;52.396;16.796;2023-05-18T02:20:14;102740.84;;;8.22;65.17
44044;BME280;29709;52.396;16.796;2023-05-18T02:23:30;102745.88;;;8.16;63.55
44044;BME280;29709;52.396;16.796;2023-05-18T02:26:43;102750.22;;;8.05;63.65
44044;BME280;29709;52.396;16.796;2023-05-18T02:29:57;102751.94;;;7.94;65.83
44044;BME280;29709;52.396;16.796;2023-05-18T02:33:11;102755.08;;;7.88;66.44
44044;BME280;29709;52.396;16.796;2023-05-18T02:36:24;102750.04;;;7.81;66.56
44044;BME280;29709;52.396;16.796;2023-05-18T02:39:38;102743.98;;;7.76;67.14
44044;BME280;29709;52.396;16.796;2023-05-18T02:42:51;102747.80;;;7.74;67.45
44044;BME280;29709;52.396;16.796;2023-05-18T02:46:05;102757.10;;;7.71;66.67
44044;BME280;29709;52.396;16.796;2023-05-18T02:49:18;102756.66;;;7.50;67.73
44044;BME280;29709;52.396;16.796;2023-05-18T02:52:31;102755.91;;;7.34;68.42
44044;BME280;29709;52.396;16.796;2023-05-18T02:55:46;102749.83;;;7.29;67.56
44044;BME280;29709;52.396;16.796;2023-05-18T02:59:00;102755.41;;;7.28;68.93
44044;BME280;29709;52.396;16.796;2023-05-18T03:02:14;102751.98;;;7.38;65.23
44044;BME280;29709;52.396;16.796;2023-05-18T03:05:28;102755.31;;;7.29;66.74
44044;BME280;29709;52.396;16.796;2023-05-18T03:08:41;102766.55;;;7.24;68.50
44044;BME280;29709;52.396;16.796;2023-05-18T03:11:54;102769.66;;;7.18;68.87
44044;BME280;29709;52.396;16.796;2023-05-18T03:15:09;102783.27;;;7.20;68.21
44044;BME280;29709;52.396;16.796;2023-05-18T03:18:23;102768.23;;;7.13;68.55
44044;BME280;29709;52.396;16.796;2023-05-18T03:21:37;102773.90;;;7.10;68.37
44044;BME280;29709;52.396;16.796;2023-05-18T03:24:50;102777.02;;;7.04;68.82
44044;BME280;29709;52.396;16.796;2023-05-18T03:28:07;102772.62;;;7.01;69.14
44044;BME280;29709;52.396;16.796;2023-05-18T03:31:20;102784.91;;;6.94;69.06
44044;BME280;29709;52.396;16.796;2023-05-18T03:34:33;102787.74;;;6.92;69.51
44044;BME280;29709;52.396;16.796;2023-05-18T03:37:48;102797.70;;;6.93;69.26
44044;BME280;29709;52.396;16.796;2023-05-18T03:41:02;102785.98;;;6.91;70.42
44044;BME280;29709;52.396;16.796;2023-05-18T03:44:15;102797.02;;;6.90;70.26
44044;BME280;29709;52.396;16.796;2023-05-18T03:47:29;102788.32;;;6.83;68.01
44044;BME280;29709;52.396;16.796;2023-05-18T03:50:42;102792.03;;;6.82;68.85
44044;BME280;29709;52.396;16.796;2023-05-18T03:53:55;102784.24;;;6.90;69.50
44044;BME280;29709;52.396;16.796;2023-05-18T03:57:09;102800.54;;;6.92;69.90
44044;BME280;29709;52.396;16.796;2023-05-18T04:00:23;102795.34;;;6.87;70.69
44044;BME280;29709;52.396;16.796;2023-05-18T04:03:36;102808.83;;;6.90;70.79
44044;BME280;29709;52.396;16.796;2023-05-18T04:06:50;102804.15;;;6.92;69.13
44044;BME280;29709;52.396;16.796;2023-05-18T04:10:04;102817.71;;;6.94;70.57
44044;BME280;29709;52.396;16.796;2023-05-18T04:13:17;102821.05;;;6.99;70.99
44044;BME280;29709;52.396;16.796;2023-05-18T04:16:33;102819.87;;;7.03;69.83
44044;BME280;29709;52.396;16.796;2023-05-18T04:19:50;102828.58;;;7.10;70.40
44044;BME280;29709;52.396;16.796;2023-05-18T04:23:03;102822.80;;;7.14;69.63
44044;BME280;29709;52.396;16.796;2023-05-18T04:26:17;102829.95;;;7.17;71.14
44044;BME280;29709;52.396;16.796;2023-05-18T04:29:31;102831.71;;;7.32;70.76
44044;BME280;29709;52.396;16.796;2023-05-18T04:32:44;102838.26;;;7.44;70.54
44044;BME280;29709;52.396;16.796;2023-05-18T04:35:58;102839.32;;;7.56;68.40
44044;BME280;29709;52.396;16.796;2023-05-18T04:39:16;102843.21;;;7.66;69.00
44044;BME280;29709;52.396;16.796;2023-05-18T04:42:30;102846.80;;;7.80;69.74
44044;BME280;29709;52.396;16.796;2023-05-18T04:45:44;102856.87;;;7.94;69.40
44044;BME280;29709;52.396;16.796;2023-05-18T04:49:03;102853.10;;;8.09;69.74
44044;BME280;29709;52.396;16.796;2023-05-18T04:52:16;102851.21;;;8.24;68.30
44044;BME280;29709;52.396;16.796;2023-05-18T04:55:29;102851.39;;;8.35;69.29
44044;BME280;29709;52.396;16.796;2023-05-18T04:58:42;102856.03;;;8.48;67.79
44044;BME280;29709;52.396;16.796;2023-05-18T05:01:59;102859.28;;;8.67;67.05
44044;BME280;29709;52.396;16.796;2023-05-18T05:05:13;102858.96;;;8.84;66.29
44044;BME280;29709;52.396;16.796;2023-05-18T05:08:26;102868.77;;;9.01;66.69
44044;BME280;29709;52.396;16.796;2023-05-18T05:11:42;102870.86;;;9.23;66.39
44044;BME280;29709;52.396;16.796;2023-05-18T05:14:55;102872.83;;;9.46;65.08
44044;BME280;29709;52.396;16.796;2023-05-18T05:18:08;102863.71;;;9.71;64.44
44044;BME280;29709;52.396;16.796;2023-05-18T05:21:22;102862.95;;;10.06;63.22
44044;BME280;29709;52.396;16.796;2023-05-18T05:24:35;102862.80;;;10.33;59.94
44044;BME280;29709;52.396;16.796;2023-05-18T05:27:49;102863.89;;;10.54;59.52
44044;BME280;29709;52.396;16.796;2023-05-18T05:31:03;102863.32;;;10.73;58.69
44044;BME280;29709;52.396;16.796;2023-05-18T05:34:16;102867.08;;;11.07;58.40
44044;BME280;29709;52.396;16.796;2023-05-18T05:37:29;102868.88;;;11.42;56.21
44044;BME280;29709;52.396;16.796;2023-05-18T05:40:42;102868.29;;;11.72;55.97
44044;BME280;29709;52.396;16.796;2023-05-18T05:43:55;102867.91;;;11.88;54.04
44044;BME280;29709;52.396;16.796;2023-05-18T05:47:09;102868.91;;;11.98;54.28
44044;BME280;29709;52.396;16.796;2023-05-18T05:50:22;102875.30;;;12.09;53.33
44044;BME280;29709;52.396;16.796;2023-05-18T05:53:35;102872.80;;;12.50;53.52
44044;BME280;29709;52.396;16.796;2023-05-18T05:56:48;102879.03;;;12.95;52.94
44044;BME280;29709;52.396;16.796;2023-05-18T06:00:02;102875.84;;;12.99;49.94
44044;BME280;29709;52.396;16.796;2023-05-18T06:03:16;102878.26;;;13.25;51.40
44044;BME280;29709;52.396;16.796;2023-05-18T06:06:29;102881.02;;;13.25;50.62
44044;BME280;29709;52.396;16.796;2023-05-18T06:09:43;102876.59;;;13.01;49.17
44044;BME280;29709;52.396;16.796;2023-05-18T06:12:56;102873.23;;;12.98;49.66
44044;BME280;29709;52.396;16.796;2023-05-18T06:16:10;102872.64;;;13.15;49.11
44044;BME280;29709;52.396;16.796;2023-05-18T06:19:23;102865.05;;;13.28;48.55
44044;BME280;29709;52.396;16.796;2023-05-18T06:22:36;102870.55;;;13.49;48.94
44044;BME280;29709;52.396;16.796;2023-05-18T06:25:50;102873.31;;;13.80;49.00
44044;BME280;29709;52.396;16.796;2023-05-18T06:29:03;102877.67;;;14.23;46.37
44044;BME280;29709;52.396;16.796;2023-05-18T06:32:17;102873.98;;;14.03;45.26
44044;BME280;29709;52.396;16.796;2023-05-18T06:35:32;102879.81;;;13.69;45.42
44044;BME280;29709;52.396;16.796;2023-05-18T06:38:46;102869.68;;;13.79;46.60
44044;BME280;29709;52.396;16.796;2023-05-18T06:41:59;102879.90;;;13.89;44.80
44044;BME280;29709;52.396;16.796;2023-05-18T06:45:12;102886.61;;;13.96;43.84
44044;BME280;29709;52.396;16.796;2023-05-18T06:48:27;102886.30;;;13.89;45.60
44044;BME280;29709;52.396;16.796;2023-05-18T06:51:40;102889.69;;;14.02;45.01
44044;BME280;29709;52.396;16.796;2023-05-18T06:54:55;102888.82;;;14.02;44.99
44044;BME280;29709;52.396;16.796;2023-05-18T06:58:09;102890.34;;;14.25;45.03
44044;BME280;29709;52.396;16.796;2023-05-18T07:01:22;102883.58;;;14.58;44.24
44044;BME280;29709;52.396;16.796;2023-05-18T07:04:35;102887.09;;;14.89;42.90
44044;BME280;29709;52.396;16.796;2023-05-18T07:07:49;102894.10;;;15.03;42.31
44044;BME280;29709;52.396;16.796;2023-05-18T07:11:03;102897.30;;;14.98;41.57
44044;BME280;29709;52.396;16.796;2023-05-18T07:14:17;102888.27;;;14.87;41.79
44044;BME280;29709;52.396;16.796;2023-05-18T07:17:30;102900.52;;;14.84;40.54
44044;BME280;29709;52.396;16.796;2023-05-18T07:20:43;102899.20;;;14.59;40.22
44044;BME280;29709;52.396;16.796;2023-05-18T07:23:56;102892.77;;;14.49;40.90
44044;BME280;29709;52.396;16.796;2023-05-18T07:27:10;102894.12;;;14.93;41.44
44044;BME280;29709;52.396;16.796;2023-05-18T07:30:23;102888.99;;;14.98;40.12
44044;BME280;29709;52.396;16.796;2023-05-18T07:33:38;102885.48;;;15.25;40.97
44044;BME280;29709;52.396;16.796;2023-05-18T07:36:51;102878.45;;;15.31;37.40
44044;BME280;29709;52.396;16.796;2023-05-18T07:40:06;102881.23;;;15.21;37.70
44044;BME280;29709;52.396;16.796;2023-05-18T07:43:22;102876.02;;;15.09;38.38
44044;BME280;29709;52.396;16.796;2023-05-18T07:46:35;102878.76;;;15.18;38.31
44044;BME280;29709;52.396;16.796;2023-05-18T07:49:48;102883.89;;;15.13;39.91
44044;BME280;29709;52.396;16.796;2023-05-18T07:53:01;102890.54;;;15.40;38.41
44044;BME280;29709;52.396;16.796;2023-05-18T07:56:14;102887.32;;;15.54;39.82
44044;BME280;29709;52.396;16.796;2023-05-18T07:59:27;102881.27;;;15.78;38.46
44044;BME280;29709;52.396;16.796;2023-05-18T08:02:42;102892.17;;;15.89;38.73
44044;BME280;29709;52.396;16.796;2023-05-18T08:05:57;102889.87;;;15.84;37.88
44044;BME280;29709;52.396;16.796;2023-05-18T08:09:12;102886.90;;;15.96;38.07
44044;BME280;29709;52.396;16.796;2023-05-18T08:12:25;102890.19;;;16.09;37.92
44044;BME280;29709;52.396;16.796;2023-05-18T08:15:39;102887.55;;;16.35;38.26
44044;BME280;29709;52.396;16.796;2023-05-18T08:18:55;102880.41;;;16.32;36.79
44044;BME280;29709;52.396;16.796;2023-05-18T08:22:08;102883.45;;;16.11;38.54
44044;BME280;29709;52.396;16.796;2023-05-18T08:27:49;102880.68;;;16.57;38.65
44044;BME280;29709;52.396;16.796;2023-05-18T08:31:02;102883.98;;;16.70;37.36
44044;BME280;29709;52.396;16.796;2023-05-18T08:34:16;102875.00;;;16.58;37.21
44044;BME280;29709;52.396;16.796;2023-05-18T08:37:29;102868.54;;;16.40;37.51
44044;BME280;29709;52.396;16.796;2023-05-18T08:40:52;102878.93;;;16.38;37.54
44044;BME280;29709;52.396;16.796;2023-05-18T08:44:13;102860.92;;;16.42;38.21
44044;BME280;29709;52.396;16.796;2023-05-18T08:47:29;102871.02;;;16.61;38.27
44044;BME280;29709;52.396;16.796;2023-05-18T08:50:43;102878.70;;;16.67;37.49
44044;BME280;29709;52.396;16.796;2023-05-18T08:53:57;102873.59;;;16.72;38.06
44044;BME280;29709;52.396;16.796;2023-05-18T08:57:12;102863.98;;;17.02;39.55
44044;BME280;29709;52.396;16.796;2023-05-18T09:00:26;102862.70;;;17.14;37.27
44044;BME280;29709;52.396;16.796;2023-05-18T09:03:41;102859.84;;;17.06;37.79
44044;BME280;29709;52.396;16.796;2023-05-18T09:06:54;102861.70;;;16.80;37.28
44044;BME280;29709;52.396;16.796;2023-05-18T09:10:12;102856.23;;;16.70;37.76
44044;BME280;29709;52.396;16.796;2023-05-18T09:13:28;102847.40;;;16.92;38.53
44044;BME280;29709;52.396;16.796;2023-05-18T09:16:42;102849.70;;;17.41;38.37
44044;BME280;29709;52.396;16.796;2023-05-18T09:19:55;102845.08;;;17.57;36.95
44044;BME280;29709;52.396;16.796;2023-05-18T09:23:10;102848.38;;;17.53;37.36
44044;BME280;29709;52.396;16.796;2023-05-18T09:26:24;102838.88;;;17.38;36.54
44044;BME280;29709;52.396;16.796;2023-05-18T09:33:03;102848.51;;;16.99;37.79
44044;BME280;29709;52.396;16.796;2023-05-18T09:36:24;102837.80;;;17.30;39.60
44044;BME280;29709;52.396;16.796;2023-05-18T09:39:38;102837.07;;;17.80;38.95
44044;BME280;29709;52.396;16.796;2023-05-18T09:42:51;102835.88;;;18.25;37.93
44044;BME280;29709;52.396;16.796;2023-05-18T09:46:06;102834.28;;;18.14;36.57
44044;BME280;29709;52.396;16.796;2023-05-18T09:49:20;102813.30;;;18.44;37.97
44044;BME280;29709;52.396;16.796;2023-05-18T09:52:41;102824.41;;;18.36;37.38
44044;BME280;29709;52.396;16.796;2023-05-18T09:55:55;102823.00;;;18.24;37.46
44044;BME280;29709;52.396;16.796;2023-05-18T09:59:14;102819.05;;;18.51;37.37
44044;BME280;29709;52.396;16.796;2023-05-18T10:02:29;102831.80;;;18.70;36.23
44044;BME280;29709;52.396;16.796;2023-05-18T10:05:42;102826.71;;;18.57;35.90
44044;BME280;29709;52.396;16.796;2023-05-18T10:08:57;102826.34;;;18.52;35.39
44044;BME280;29709;52.396;16.796;2023-05-18T10:12:12;102834.28;;;18.23;36.03
44044;BME280;29709;52.396;16.796;2023-05-18T10:15:25;102838.02;;;17.97;36.10
44044;BME280;29709;52.396;16.796;2023-05-18T10:18:39;102829.95;;;17.78;36.55
44044;BME280;29709;52.396;16.796;2023-05-18T10:21:53;102833.40;;;17.72;36.57
44044;BME280;29709;52.396;16.796;2023-05-18T10:25:10;102832.33;;;18.07;37.51
44044;BME280;29709;52.396;16.796;2023-05-18T10:28:30;102819.34;;;18.32;37.28
44044;BME280;29709;52.396;16.796;2023-05-18T10:31:45;102821.36;;;18.72;36.77
44044;BME280;29709;52.396;16.796;2023-05-18T10:35:00;102813.02;;;18.80;35.70
44044;BME280;29709;52.396;16.796;2023-05-18T10:38:23;102817.91;;;18.86;36.97
44044;BME280;29709;52.396;16.796;2023-05-18T10:41:37;102815.09;;;19.11;36.61
44044;BME280;29709;52.396;16.796;2023-05-18T10:44:52;102808.83;;;19.00;36.18
44044;BME280;29709;52.396;16.796;2023-05-18T10:48:08;102809.70;;;19.01;36.46
44044;BME280;29709;52.396;16.796;2023-05-18T10:51:23;102806.04;;;18.92;35.91
44044;BME280;29709;52.396;16.796;2023-05-18T10:54:39;102817.17;;;18.84;36.46
44044;BME280;29709;52.396;16.796;2023-05-18T10:57:58;102817.52;;;19.06;35.74
44044;BME280;29709;52.396;16.796;2023-05-18T11:01:15;102816.45;;;19.31;36.88
44044;BME280;29709;52.396;16.796;2023-05-18T11:04:30;102812.06;;;19.45;35.43
44044;BME280;29709;52.396;16.796;2023-05-18T11:07:44;102808.27;;;19.21;35.33
44044;BME280;29709;52.396;16.796;2023-05-18T11:11:03;102814.91;;;19.20;35.01
44044;BME280;29709;52.396;16.796;2023-05-18T11:14:25;102801.65;;;19.30;35.93
44044;BME280;29709;52.396;16.796;2023-05-18T11:17:39;102818.14;;;19.65;35.57
44044;BME280;29709;52.396;16.796;2023-05-18T11:20:52;102822.23;;;19.13;35.62
44044;BME280;29709;52.396;16.796;2023-05-18T11:27:31;102812.93;;;18.39;36.57
44044;BME280;29709;52.396;16.796;2023-05-18T11:30:46;102802.72;;;18.72;36.90
44044;BME280;29709;52.396;16.796;2023-05-18T11:34:32;102810.74;;;18.92;36.03
44044;BME280;29709;52.396;16.796;2023-05-18T11:37:51;102808.96;;;19.23;37.03
44044;BME280;29709;52.396;16.796;2023-05-18T11:40:49;102800.96;;;19.28;36.63
44044;BME280;29709;52.396;16.796;2023-05-18T11:44:13;102808.08;;;19.39;36.31
44044;BME280;29709;52.396;16.796;2023-05-18T11:47:30;102803.34;;;19.56;36.21
44044;BME280;29709;52.396;16.796;2023-05-18T11:50:45;102805.71;;;19.75;35.76
44044;BME280;29709;52.396;16.796;2023-05-18T11:53:59;102802.08;;;19.67;36.67
44044;BME280;29709;52.396;16.796;2023-05-18T11:57:14;102792.43;;;20.16;36.80
44044;BME280;29709;52.396;16.796;2023-05-18T12:00:29;102810.20;;;20.24;34.34
44044;BME280;29709;52.396;16.796;2023-05-18T12:03:43;102809.62;;;19.50;35.06
44044;BME280;29709;52.396;16.796;2023-05-18T12:06:56;102802.52;;;19.07;36.55
44044;BME280;29709;52.396;16.796;2023-05-18T12:10:12;102801.83;;;19.21;36.76
44044;BME280;29709;52.396;16.796;2023-05-18T12:13:29;102808.96;;;19.23;35.75
44044;BME280;29709;52.396;16.796;2023-05-18T12:16:42;102805.13;;;19.24;35.91
44044;BME280;29709;52.396;16.796;2023-05-18T12:19:56;102801.66;;;19.06;36.25
44044;BME280;29709;52.396;16.796;2023-05-18T12:23:09;102796.81;;;18.92;35.84
44044;BME280;29709;52.396;16.796;2023-05-18T12:26:23;102801.35;;;18.77;36.71
44044;BME280;29709;52.396;16.796;2023-05-18T12:29:39;102798.72;;;18.83;36.74
44044;BME280;29709;52.396;16.796;2023-05-18T12:32:54;102795.25;;;18.81;37.32
44044;BME280;29709;52.396;16.796;2023-05-18T12:36:12;102796.77;;;19.16;36.65
44044;BME280;29709;52.396;16.796;2023-05-18T12:39:26;102794.96;;;19.48;36.22
44044;BME280;29709;52.396;16.796;2023-05-18T12:42:39;102783.98;;;19.63;36.66
44044;BME280;29709;52.396;16.796;2023-05-18T12:45:53;102789.00;;;19.67;35.75
44044;BME280;29709;52.396;16.796;2023-05-18T12:49:07;102786.48;;;19.33;35.54
44044;BME280;29709;52.396;16.796;2023-05-18T12:52:20;102785.66;;;18.75;36.90
44044;BME280;29709;52.396;16.796;2023-05-18T12:55:33;102780.25;;;18.58;36.82
44044;BME280;29709;52.396;16.796;2023-05-18T12:58:58;102783.55;;;18.45;37.21
44044;BME280;29709;52.396;16.796;2023-05-18T13:05:36;102785.80;;;19.07;35.96
44044;BME280;29709;52.396;16.796;2023-05-18T13:08:53;102782.01;;;18.99;37.09
44044;BME280;29709;52.396;16.796;2023-05-18T13:12:07;102780.80;;;18.69;35.62
44044;BME280;29709;52.396;16.796;2023-05-18T13:15:22;102781.27;;;18.49;36.12
44044;BME280;29709;52.396;16.796;2023-05-18T13:18:36;102780.04;;;18.43;37.05
44044;BME280;29709;52.396;16.796;2023-05-18T13:21:55;102774.88;;;18.89;36.63
44044;BME280;29709;52.396;16.796;2023-05-18T13:25:09;102771.66;;;19.32;36.32
44044;BME280;29709;52.396;16.796;2023-05-18T13:28:22;102766.08;;;19.41;35.66
44044;BME280;29709;52.396;16.796;2023-05-18T13:31:35;102769.19;;;19.38;35.59
44044;BME280;29709;52.396;16.796;2023-05-18T13:34:48;102766.16;;;19.72;36.20
44044;BME280;29709;52.396;16.796;2023-05-18T13:38:04;102770.16;;;19.69;34.52
44044;BME280;29709;52.396;16.796;2023-05-18T13:41:17;102767.92;;;19.65;34.97
44044;BME280;29709;52.396;16.796;2023-05-18T13:44:30;102772.48;;;19.57;35.51
44044;BME280;29709;52.396;16.796;2023-05-18T13:47:43;102774.31;;;19.18;35.32
44044;BME280;29709;52.396;16.796;2023-05-18T13:51:05;102764.78;;;18.80;36.22
44044;BME280;29709;52.396;16.796;2023-05-18T13:54:18;102764.95;;;18.70;37.27
44044;BME280;29709;52.396;16.796;2023-05-18T13:57:32;102769.84;;;18.76;36.20
44044;BME280;29709;52.396;16.796;2023-05-18T14:00:45;102767.73;;;18.70;35.87
44044;BME280;29709;52.396;16.796;2023-05-18T14:03:59;102761.09;;;18.63;35.11
44044;BME280;29709;52.396;16.796;2023-05-18T14:07:13;102761.63;;;18.83;36.75
44044;BME280;29709;52.396;16.796;2023-05-18T14:10:26;102747.94;;;19.37;36.59
44044;BME280;29709;52.396;16.796;2023-05-18T14:13:39;102746.70;;;19.55;35.52
44044;BME280;29709;52.396;16.796;2023-05-18T14:16:52;102750.22;;;19.33;34.75
44044;BME280;29709;52.396;16.796;2023-05-18T14:20:07;102756.07;;;18.83;35.49
44044;BME280;29709;52.396;16.796;2023-05-18T14:23:20;102748.74;;;18.57;36.35
44044;BME280;29709;52.396;16.796;2023-05-18T14:26:36;102744.36;;;18.55;36.10
44044;BME280;29709;52.396;16.796;2023-05-18T14:29:49;102743.68;;;18.53;36.32
44044;BME280;29709;52.396;16.796;2023-05-18T14:33:03;102748.57;;;18.75;35.91
44044;BME280;29709;52.396;16.796;2023-05-18T14:36:16;102739.84;;;18.94;36.38
44044;BME280;29709;52.396;16.796;2023-05-18T14:39:29;102743.80;;;19.16;35.53
44044;BME280;29709;52.396;16.796;2023-05-18T14:42:43;102740.82;;;19.26;34.74
44044;BME280;29709;52.396;16.796;2023-05-18T14:45:56;102738.02;;;19.34;35.52
44044;BME280;29709;52.396;16.796;2023-05-18T14:49:09;102741.54;;;19.28;35.33
44044;BME280;29709;52.396;16.796;2023-05-18T14:52:22;102741.84;;;19.41;36.03
44044;BME280;29709;52.396;16.796;2023-05-18T14:55:36;102738.22;;;19.24;34.99
44044;BME280;29709;52.396;16.796;2023-05-18T14:58:49;102744.48;;;19.26;35.27
44044;BME280;29709;52.396;16.796;2023-05-18T15:02:02;102736.06;;;19.51;35.03
44044;BME280;29709;52.396;16.796;2023-05-18T15:05:16;102736.55;;;19.54;34.66
44044;BME280;29709;52.396;16.796;2023-05-18T15:08:29;102745.02;;;19.77;34.35
44044;BME280;29709;52.396;16.796;2023-05-18T15:11:43;102739.47;;;19.69;33.35
44044;BME280;29709;52.396;16.796;2023-05-18T15:14:58;102731.49;;;19.58;33.96
44044;BME280;29709;52.396;16.796;2023-05-18T15:18:11;102723.23;;;19.81;34.89
44044;BME280;29709;52.396;16.796;2023-05-18T15:21:24;102746.91;;;19.85;33.89
44044;BME280;29709;52.396;16.796;2023-05-18T15:24:37;102748.74;;;19.70;34.21
44044;BME280;29709;52.396;16.796;2023-05-18T15:27:50;102742.53;;;19.43;34.39
44044;BME280;29709;52.396;16.796;2023-05-18T15:31:05;102742.42;;;19.20;34.82
44044;BME280;29709;52.396;16.796;2023-05-18T15:34:18;102741.75;;;19.10;35.30
44044;BME280;29709;52.396;16.796;2023-05-18T15:37:32;102738.43;;;19.07;35.88
44044;BME280;29709;52.396;16.796;2023-05-18T15:40:45;102740.21;;;18.99;35.74
44044;BME280;29709;52.396;16.796;2023-05-18T15:44:00;102734.08;;;19.04;35.66
44044;BME280;29709;52.396;16.796;2023-05-18T15:47:13;102728.30;;;19.22;35.86
44044;BME280;29709;52.396;16.796;2023-05-18T15:50:27;102711.87;;;19.35;35.61
44044;BME280;29709;52.396;16.796;2023-05-18T15:53:40;102723.88;;;19.44;34.30
44044;BME280;29709;52.396;16.796;2023-05-18T15:56:54;102725.15;;;19.25;34.35
44044;BME280;29709;52.396;16.796;2023-05-18T16:00:08;102731.16;;;18.97;35.12
44044;BME280;29709;52.396;16.796;2023-05-18T16:03:22;102722.12;;;18.87;35.64
44044;BME280;29709;52.396;16.796;2023-05-18T16:06:35;102731.34;;;18.88;35.91
44044;BME280;29709;52.396;16.796;2023-05-18T16:09:48;102729.76;;;18.93;35.84
44044;BME280;29709;52.396;16.796;2023-05-18T16:13:01;102725.54;;;19.14;35.75
44044;BME280;29709;52.396;16.796;2023-05-18T16:16:17;102727.44;;;19.21;34.99
44044;BME280;29709;52.396;16.796;2023-05-18T16:19:31;102719.29;;;19.03;35.05
44044;BME280;29709;52.396;16.796;2023-05-18T16:22:48;102726.47;;;18.82;35.43
44044;BME280;29709;52.396;16.796;2023-05-18T16:26:03;102732.90;;;18.74;35.19
44044;BME280;29709;52.396;16.796;2023-05-18T16:29:18;102728.02;;;18.60;35.99
44044;BME280;29709;52.396;16.796;2023-05-18T16:32:31;102732.03;;;18.57;35.60
44044;BME280;29709;52.396;16.796;2023-05-18T16:35:47;102728.38;;;18.57;36.39
44044;BME280;29709;52.396;16.796;2023-05-18T16:39:00;102723.48;;;18.51;36.11
44044;BME280;29709;52.396;16.796;2023-05-18T16:42:14;102717.75;;;18.52;36.69
44044;BME280;29709;52.396;16.796;2023-05-18T16:45:32;102726.47;;;18.57;35.80
44044;BME280;29709;52.396;16.796;2023-05-18T16:48:45;102722.96;;;18.63;36.61
44044;BME280;29709;52.396;16.796;2023-05-18T16:51:58;102722.30;;;18.78;36.47
44044;BME280;29709;52.396;16.796;2023-05-18T16:55:12;102715.00;;;18.77;35.89
44044;BME280;29709;52.396;16.796;2023-05-18T16:58:25;102715.70;;;18.70;34.99
44044;BME280;29709;52.396;16.796;2023-05-18T17:01:39;102725.27;;;18.76;36.22
44044;BME280;29709;52.396;16.796;2023-05-18T17:04:52;102719.48;;;18.86;36.42
44044;BME280;29709;52.396;16.796;2023-05-18T17:08:07;102726.78;;;18.95;36.50
44044;BME280;29709;52.396;16.796;2023-05-18T17:11:23;102727.15;;;18.92;36.45